Latest Weather Observations for Port Pirie Airport AWS

IDS60801

Issued at 11:31 am CDT Sunday 18 February 2018 (issued every 30 minutes, with the page automatically refreshed every 10 minutes)

About weather observations | Map of weather stations | Latest weather observations for SA | Other Formats
Station Details ID: 021139 Name: PORT PIRIE AERODROME AWS Lat: -33.24 Lon: 138.00 Height: 12.0 m
Data from the previous 72 hours. | See also: Recent months for locations in South Australia
Date/Time
CDT
Temp
°C
App
Temp
°C
Dew
Point
°C
Rel
Hum
%
Delta-T
°C
Wind Press
QNH
hPa
Press
MSL
hPa
Rain since
9am
mm
Dir  Spd
km/h
Gust
km/h
Spd
kts
Gust
kts
18/11:30am 28.4 22.0 14.3 42 8.5 SW 41 50 22 27 1011.2 1011.2 0.0
18/11:00am 27.8 21.4 13.3 40 8.6 SW 39 50 21 27 1010.8 1010.8 0.0
18/10:30am 29.2 25.4 15.7 44 8.3 WSW 30 39 16 21 1010.2 1010.2 0.0
18/10:26am 28.9 25.3 13.2 38 9.3 W 24 39 13 21 1010.2 1010.2 0.0
18/10:00am 29.0 27.7 12.4 36 9.7 W 11 17 6 9 1009.9 1009.9 0.0
18/09:30am 27.5 25.5 13.8 43 8.2 W 17 20 9 11 1009.9 1009.9 0.0
18/09:00am 28.3 25.3 12.6 38 9.2 NW 20 26 11 14 1009.6 1009.6 0.0
18/08:30am 27.8 26.6 9.6 32 10.1 NNE 6 22 3 12 1008.9 1008.9 0.0
18/08:00am 23.2 22.8 9.6 42 7.4 SSW 2 6 1 3 1008.2 1008.2 0.0
18/07:30am 19.9 18.5 8.9 49 5.8 SSW 6 9 3 5 1007.6 1007.6 0.0
18/07:00am 18.5 18.1 8.2 51 5.3 CALM 0 0 0 0 1007.2 1007.2 0.0
18/06:30am 19.5 18.1 8.8 50 5.6 N 6 7 3 4 1007.0 1007.0 0.0
18/06:00am 18.9 17.6 9.1 53 5.2 E 6 9 3 5 1006.9 1006.9 0.0
18/05:30am 19.5 16.9 9.4 52 5.4 SE 13 15 7 8 1006.8 1006.8 0.0
18/05:00am 20.2 16.9 9.5 50 5.7 SE 17 17 9 9 1007.0 1007.0 0.0
18/04:30am 21.2 17.5 10.1 49 6.0 SE 20 24 11 13 1006.9 1006.9 0.0
18/04:00am 21.1 17.6 10.9 52 5.6 SE 20 24 11 13 1007.1 1007.1 0.0
18/03:30am 20.7 16.5 11.1 54 5.3 SE 24 28 13 15 1007.2 1007.2 0.0
18/03:00am 21.6 16.6 11.0 51 5.9 SE 28 32 15 17 1007.5 1007.5 0.0
18/02:30am 21.2 17.0 11.0 52 5.6 SE 24 28 13 15 1008.0 1008.0 0.0
18/02:00am 21.2 17.5 11.5 54 5.4 ESE 22 28 12 15 1008.6 1008.6 0.0
18/01:30am 21.4 16.3 12.0 55 5.3 ESE 30 35 16 19 1009.0 1009.0 0.0
18/01:00am 21.1 16.9 13.5 62 4.4 SE 28 35 15 19 1009.7 1009.7 0.0
18/12:30am 21.2 16.9 13.1 60 4.6 SE 28 35 15 19 1010.2 1010.2 0.0
18/12:00am 21.6 17.5 12.7 57 5.1 SE 26 32 14 17 1010.6 1010.6 0.0
 
Date/Time
CDT
Temp
°C
App
Temp
°C
Dew
Point
°C
Rel
Hum
%
Delta-T
°C
Wind Press
QNH
hPa
Press
MSL
hPa
Rain since
9am
mm
Dir  Spd
km/h
Gust
km/h
Spd
kts
Gust
kts
17/11:30pm 22.3 18.1 12.5 53 5.6 SE 26 32 14 17 1010.8 1010.8 0.0
17/11:00pm 22.9 20.0 12.2 51 6.1 SE 19 24 10 13 1010.6 1010.6 0.0
17/10:30pm 23.7 21.2 12.4 49 6.5 SE 17 24 9 13 1010.6 1010.6 0.0
17/10:00pm 24.4 21.9 12.4 47 6.9 SE 17 20 9 11 1010.2 1010.2 0.0
17/09:30pm 25.4 21.0 12.9 45 7.3 SE 28 35 15 19 1009.7 1009.7 0.0
17/09:00pm 26.0 23.8 13.2 45 7.5 SE 17 22 9 12 1009.3 1009.3 0.0
17/08:30pm 26.0 23.8 14.8 50 6.7 S 20 26 11 14 1009.2 1009.2 0.0
17/08:00pm 27.8 24.3 13.3 40 8.6 SSW 24 30 13 16 1008.8 1008.8 0.0
17/07:30pm 30.8 27.1 9.6 27 12.0 S 19 22 10 12 1008.5 1008.5 0.0
17/07:00pm 31.6 27.9 8.0 23 13.0 S 17 20 9 11 1008.3 1008.3 0.0
17/06:30pm 31.3 27.3 8.3 24 12.8 S 19 26 10 14 1008.3 1008.3 0.0
17/06:00pm 31.0 27.1 9.3 26 12.2 S 20 28 11 15 1008.5 1008.5 0.0
17/05:30pm 31.3 27.5 11.1 29 11.7 SSW 22 32 12 17 1008.9 1008.9 0.0
17/05:00pm 31.3 27.3 10.6 28 11.9 SSW 22 30 12 16 1009.0 1009.0 0.0
17/04:30pm 32.5 28.3 11.1 27 12.5 SW 24 32 13 17 1009.1 1009.1 0.0
17/04:00pm 31.9 29.3 10.6 27 12.3 SW 15 22 8 12 1009.3 1009.3 0.0
17/03:30pm 31.2 28.4 10.0 27 12.1 WSW 15 22 8 12 1009.5 1009.5 0.0
17/03:00pm 32.4 29.3 11.6 28 12.2 WSW 19 28 10 15 1009.8 1009.8 0.0
17/02:30pm 32.5 31.0 9.3 24 13.1 N 7 15 4 8 1010.4 1010.4 0.0
17/02:00pm 30.9 28.7 9.2 26 12.2 NNW 11 20 6 11 1010.8 1010.8 0.0
17/01:30pm 31.3 27.6 9.5 26 12.3 NW 19 26 10 14 1011.0 1011.0 0.0
17/01:00pm 30.2 26.9 9.7 28 11.5 NW 17 22 9 12 1011.3 1011.3 0.0
17/12:30pm 29.4 26.5 9.5 29 11.1 NW 15 24 8 13 1011.5 1011.5 0.0
17/12:00pm 29.4 26.6 10.0 30 10.9 NW 15 24 8 13 1012.0 1012.0 0.0
17/11:30am 29.1 26.8 10.3 31 10.6 N 13 20 7 11 1012.4 1012.4 0.0
17/11:00am 27.7 25.4 10.4 34 9.7 N 13 19 7 10 1012.7 1012.7 0.0
17/10:30am 26.4 24.8 10.1 36 9.1 NNE 9 15 5 8 1013.0 1013.0 0.0
17/10:00am 25.7 24.6 9.9 37 8.7 NW 6 9 3 5 1013.2 1013.2 0.0
17/09:30am 25.0 24.1 10.8 41 7.9 ENE 6 7 3 4 1013.2 1013.2 0.0
17/09:00am 23.3 21.9 11.0 46 6.8 E 9 13 5 7 1013.1 1013.1 0.0
17/08:30am 21.0 18.9 11.1 53 5.5 SE 13 15 7 8 1013.2 1013.2 0.0
17/08:00am 17.9 14.9 10.5 62 4.0 SSE 17 20 9 11 1013.4 1013.4 0.0
17/07:30am 16.0 13.0 10.5 70 2.9 SSE 17 20 9 11 1012.9 1012.9 0.0
17/07:00am 15.3 11.9 11.1 76 2.2 SSE 20 24 11 13 1012.8 1012.8 0.0
17/06:30am 15.2 11.8 11.2 77 2.1 SSE 20 22 11 12 1012.7 1012.7 0.0
17/06:00am 15.0 11.4 10.6 75 2.3 S 20 22 11 12 1012.5 1012.5 0.0
17/05:30am 15.5 12.8 10.3 71 2.7 SSE 15 19 8 10 1012.5 1012.5 0.0
17/05:00am 15.6 12.4 9.9 69 3.0 SE 17 20 9 11 1011.9 1011.9 0.0
17/04:30am 14.5 12.0 9.7 73 2.5 SE 13 17 7 9 1011.8 1011.8 0.0
17/04:00am 14.7 12.5 9.5 71 2.7 SSE 11 13 6 7 1011.9 1011.9 0.0
17/03:30am 15.4 12.6 10.0 70 2.8 SSE 15 17 8 9 1012.1 1012.1 0.0
17/03:00am 15.6 12.8 9.9 69 3.0 SSE 15 17 8 9 1012.3 1012.3 0.0
17/02:30am 15.8 13.4 9.9 68 3.1 SSE 13 15 7 8 1012.3 1012.3 0.0
17/02:00am 16.9 14.2 10.3 65 3.5 SSE 15 17 8 9 1012.5 1012.5 0.0
17/01:30am 17.2 14.2 10.6 65 3.5 SSE 17 19 9 10 1013.0 1013.0 0.0
17/01:00am 17.4 15.1 10.5 64 3.7 SSE 13 17 7 9 1013.4 1013.4 0.0
17/12:30am 17.6 14.9 10.5 63 3.8 SE 15 17 8 9 1013.6 1013.6 0.0
17/12:00am 18.1 15.4 10.2 60 4.2 SSE 15 17 8 9 1013.9 1013.9 0.0
 
Date/Time
CDT
Temp
°C
App
Temp
°C
Dew
Point
°C
Rel
Hum
%
Delta-T
°C
Wind Press
QNH
hPa
Press
MSL
hPa
Rain since
9am
mm
Dir  Spd
km/h
Gust
km/h
Spd
kts
Gust
kts
16/11:30pm 18.6 15.5 10.4 59 4.4 S 17 19 9 10 1014.1 1014.1 0.0
16/11:00pm 18.4 16.1 10.3 59 4.3 S 13 15 7 8 1014.3 1014.3 0.0
16/10:30pm 19.2 17.0 10.7 58 4.6 S 13 15 7 8 1014.4 1014.4 0.0
16/10:00pm 20.8 18.0 11.2 54 5.3 S 17 20 9 11 1014.1 1014.1 0.0
16/09:30pm 21.3 18.7 13.2 60 4.6 SSW 19 22 10 12 1013.8 1013.8 0.0
16/09:00pm 21.7 17.1 14.6 64 4.2 SSW 32 39 17 21 1013.5 1013.5 0.0
16/08:30pm 21.8 16.9 14.2 62 4.4 SSW 33 41 18 22 1013.3 1013.3 0.0
16/08:00pm 22.3 16.1 13.9 59 4.9 SSW 39 48 21 26 1012.9 1012.9 0.0
16/07:30pm 23.1 16.9 13.8 55 5.4 SSW 39 48 21 26 1012.7 1012.7 0.0
16/07:00pm 23.9 17.7 13.7 53 6.0 SSW 39 50 21 27 1012.6 1012.6 0.0
16/06:30pm 24.8 18.6 13.7 50 6.5 SW 39 46 21 25 1012.5 1012.5 0.0
16/06:00pm 25.2 19.1 13.1 47 7.0 SSW 37 46 20 25 1012.5 1012.5 0.0
16/05:30pm 25.9 19.6 13.4 46 7.3 SSW 39 46 21 25 1012.8 1012.8 0.0
16/05:00pm 26.3 19.7 13.8 46 7.4 SW 41 52 22 28 1012.9 1012.9 0.0
16/04:30pm 26.4 20.5 13.5 45 7.6 SW 37 46 20 25 1013.0 1013.0 0.0
16/04:00pm 27.1 21.7 13.8 44 7.9 SW 35 44 19 24 1013.2 1013.2 0.0
16/03:30pm 26.7 21.4 13.1 43 8.0 SW 33 43 18 23 1013.5 1013.5 0.0
16/03:00pm 26.9 22.1 12.9 42 8.2 SW 30 39 16 21 1013.8 1013.8 0.0
16/02:30pm 26.6 21.3 13.0 43 7.9 SW 33 44 18 24 1014.2 1014.2 0.0
16/02:00pm 26.4 23.0 12.5 42 8.1 SW 22 33 12 18 1014.5 1014.5 0.0
16/01:30pm 26.0 22.0 11.7 41 8.2 SSW 24 32 13 17 1014.7 1014.7 0.0
16/01:00pm 26.5 23.0 10.2 36 9.1 SE 19 28 10 15 1014.9 1014.9 0.0
16/12:30pm 26.4 24.5 10.5 37 8.9 SE 11 22 6 12 1015.3 1015.3 0.0
16/12:00pm 24.6 22.6 10.1 40 8.0 ESE 11 22 6 12 1015.9 1015.9 0.0
16/11:30am 24.3 22.1 10.9 43 7.5 SSE 13 20 7 11 1016.1 1016.1 0.0
16/11:00am 24.5 21.2 11.5 44 7.3 SSE 20 32 11 17 1016.2 1016.2 0.0
16/10:30am 22.6 19.8 11.4 49 6.2 ESE 17 26 9 14 1016.7 1016.7 0.0
16/10:00am 22.3 20.1 12.0 52 5.8 SE 15 20 8 11 1016.8 1016.8 0.0
16/09:30am 21.3 19.2 12.4 57 5.0 ESE 15 20 8 11 1016.8 1016.8 0.0
16/09:00am 20.3 18.2 12.5 61 4.4 ESE 15 20 8 11 1017.0 1016.9 0.0
16/08:30am 19.5 17.3 12.0 62 4.2 ESE 15 17 8 9 1016.5 1016.5 0.0
16/08:00am 17.9 16.1 11.0 64 3.7 ESE 11 15 6 8 1016.2 1016.2 0.0
16/07:30am 14.7 12.9 9.3 70 2.8 SE 9 11 5 6 1015.9 1015.9 0.0
16/07:00am 13.9 11.1 8.5 70 2.7 SSE 13 15 7 8 1015.7 1015.7 0.0
16/06:30am 14.1 12.3 9.3 73 2.4 SE 9 11 5 6 1015.3 1015.3 0.0
16/06:00am 12.6 9.7 8.1 74 2.2 SE 13 15 7 8 1015.1 1015.1 0.0
16/05:30am 12.5 9.5 7.8 73 2.3 SE 13 15 7 8 1015.0 1015.0 0.0
16/05:00am 13.1 10.6 8.2 72 2.4 ESE 11 13 6 7 1015.3 1015.3 0.0
16/04:30am 12.8 9.8 7.5 70 2.6 SE 13 15 7 8 1015.3 1015.3 0.0
16/04:00am 13.0 10.4 7.9 71 2.5 SE 11 13 6 7 1015.2 1015.2 0.0
16/03:30am 12.9 9.4 7.4 69 2.7 SE 15 17 8 9 1015.2 1015.2 0.0
16/03:00am 13.9 11.4 8.3 69 2.8 ESE 11 13 6 7 1015.4 1015.4 0.0
16/02:30am 14.4 11.6 8.6 68 2.9 SE 13 15 7 8 1015.6 1015.6 0.0
16/02:00am 14.6 11.8 8.5 67 3.1 SE 13 15 7 8 1015.9 1015.9 0.0
16/01:30am 16.3 13.0 9.7 65 3.4 SSE 17 20 9 11 1015.9 1015.9 0.0
16/01:00am 16.1 13.4 9.1 63 3.6 SSE 13 19 7 10 1016.0 1016.0 0.0
16/12:30am 16.8 13.5 9.5 62 3.8 S 17 20 9 11 1016.0 1016.0 0.0
16/12:00am 16.5 13.7 8.7 60 4.0 SSE 13 15 7 8 1015.9 1015.9 0.0
 
Date/Time
CDT
Temp
°C
App
Temp
°C
Dew
Point
°C
Rel
Hum
%
Delta-T
°C
Wind Press
QNH
hPa
Press
MSL
hPa
Rain since
9am
mm
Dir  Spd
km/h
Gust
km/h
Spd
kts
Gust
kts
15/11:30pm 18.1 15.3 10.0 59 4.3 S 15 20 8 11 1015.9 1015.9 0.0
15/11:00pm 17.4 14.6 8.5 56 4.6 S 13 15 7 8 1016.1 1016.1 0.0
15/10:30pm 17.9 14.6 8.2 53 5.0 S 15 17 8 9 1015.9 1015.9 0.0
15/10:00pm 19.2 15.7 8.8 51 5.4 SSE 17 19 9 10 1015.7 1015.7 0.0
15/09:30pm 20.5 16.6 9.4 49 5.9 SSE 20 24 11 13 1015.5 1015.5 0.0
15/09:00pm 21.3 17.4 8.6 44 6.7 S 19 24 10 13 1015.3 1015.3 0.0
15/08:30pm 22.5 18.5 8.2 40 7.5 SSW 19 24 10 13 1015.2 1015.2 0.0
15/08:00pm 23.5 18.2 8.4 38 8.0 SSW 26 32 14 17 1015.1 1015.1 0.0
15/07:30pm 24.5 18.3 8.0 35 8.8 SSW 30 35 16 19 1014.7 1014.7 0.0
15/07:00pm 25.6 19.7 9.0 35 9.0 SSW 30 37 16 20 1014.5 1014.5 0.0
15/06:30pm 25.3 17.9 8.3 34 9.1 SSW 37 46 20 25 1014.3 1014.3 0.0
15/06:00pm 26.3 19.0 7.4 30 10.0 SSW 35 46 19 25 1014.3 1014.3 0.0
15/05:30pm 27.4 21.1 8.8 31 10.2 SSW 32 43 17 23 1014.3 1014.3 0.0
15/05:00pm 26.3 20.8 9.2 34 9.4 SSW 28 39 15 21 1014.6 1014.6 0.0
15/04:30pm 26.2 21.9 10.8 38 8.7 SSW 24 32 13 17 1015.1 1015.1 0.0
15/04:00pm 26.5 23.0 11.0 38 8.8 S 20 41 11 22 1015.3 1015.3 0.0
15/03:30pm 25.5 21.5 10.5 39 8.4 SW 22 30 12 16 1015.8 1015.8 0.0
15/03:00pm 26.9 23.3 10.6 36 9.2 SSW 20 33 11 18 1016.0 1016.0 0.0
15/02:30pm 25.6 20.7 8.6 34 9.2 SW 24 32 13 17 1016.2 1016.2 0.0
15/02:00pm 25.9 22.0 8.8 34 9.3 SW 19 28 10 15 1016.3 1016.3 0.0
15/01:30pm 25.1 21.1 9.0 36 8.7 SW 20 28 11 15 1016.6 1016.6 0.0
15/01:00pm 25.3 20.8 10.0 38 8.5 SW 24 33 13 18 1017.0 1016.9 0.0
15/12:30pm 24.8 20.0 10.3 40 8.0 SW 26 35 14 19 1017.3 1017.2 0.0
15/12:00pm 25.3 20.5 10.4 39 8.3 SW 26 39 14 21 1017.5 1017.4 0.0

Other Formats:

Comma delimited format used in spreadsheet applications
http://www.bom.gov.au/fwo/IDS60801/IDS60801.99749.axf

JavaScript Object Notation format (JSON) in row-major order
http://www.bom.gov.au/fwo/IDS60801/IDS60801.99749.json